This is the latest recevied weather packets stored in our database for station/object EFOU. If no packets are shown the sender has not sent any weather packets the latest 10 day(s).
| Time | Temp. | Humidity | Pressure | Rain* | Wind** | Luminosity | Snow |
|---|---|---|---|---|---|---|---|
| 1777981634 | 6.67° C | 60% | 996.2 hPa | - | - | - | - |
| 1777980434 | 6.11° C | 63% | 995.9 hPa | - | - | - | - |
| 1777979234 | 5.56° C | 68% | 995.8 hPa | - | - | - | - |
| 1777978034 | 5.56° C | 71% | 995.5 hPa | - | - | - | - |
| 1777976833 | 5° C | 74% | 995.3 hPa | - | - | - | - |
| 1777975633 | 4.44° C | 75% | 995.1 hPa | - | - | - | - |
| 1777974433 | 3.89° C | 82% | 995 hPa | - | - | - | - |
| 1777973233 | 3.33° C | 82% | 994.8 hPa | - | - | - | - |
| 1777972033 | 3.89° C | 81% | 994.6 hPa | - | - | - | - |
| 1777970833 | 4.44° C | 77% | 994.4 hPa | - | - | - | - |
| 1777969633 | 4.44° C | 77% | 994.2 hPa | - | - | - | - |
| 1777968433 | 4.44° C | 76% | 994.1 hPa | - | - | - | - |
| 1777967233 | 3.89° C | 78% | 994 hPa | - | - | - | - |
| 1777966033 | 3.89° C | 77% | 993.9 hPa | - | - | - | - |
| 1777964833 | 4.44° C | 72% | 993.7 hPa | - | - | - | - |
| 1777963633 | 4.44° C | 72% | 993.6 hPa | - | - | - | - |
| 1777962433 | 4.44° C | 76% | 993.6 hPa | - | - | - | - |
| 1777961233 | 4.44° C | 82% | 993.6 hPa | - | - | - | - |
| 1777960033 | 4.44° C | 82% | 993.5 hPa | - | - | - | - |
| 1777958832 | 3.89° C | 87% | 993.5 hPa | - | - | - | - |
| 1777957632 | 3.33° C | 91% | 993.5 hPa | - | - | - | - |
| 1777956432 | 3.89° C | 90% | 993.4 hPa | - | - | - | - |
| 1777955232 | 3.89° C | 91% | 993.4 hPa | - | - | - | - |
| 1777954032 | 3.33° C | 92% | 993.4 hPa | - | - | - | - |
| 1777952832 | 2.78° C | 93% | 993.4 hPa | - | - | - | - |
* Rain since midnight (hover to see other rain measurements)
** Current wind speed in m/s (hover to see current wind gust speed)